createdAt,value
2023-06-14T00:00:49.906Z,81.09
2023-06-14T00:01:28.850Z,81.09
2023-06-14T00:02:28.821Z,80.41
2023-06-14T00:03:28.732Z,80.41
2023-06-14T00:04:28.699Z,81.27
2023-06-14T00:05:28.538Z,81.09
2023-06-14T00:06:49.450Z,82.14
2023-06-14T00:07:28.386Z,82.42
2023-06-14T00:08:28.340Z,82.71
2023-06-14T00:09:28.220Z,82.52
2023-06-14T00:10:28.142Z,82.81
2023-06-14T00:11:28.068Z,82.61
2023-06-14T00:12:48.973Z,82.42
2023-06-14T00:13:27.919Z,82.81
2023-06-14T00:14:27.821Z,83.00
2023-06-14T00:15:27.754Z,83.00
2023-06-14T00:16:27.715Z,83.86
2023-06-14T00:17:27.623Z,84.72
2023-06-14T00:18:48.489Z,85.19
2023-06-14T00:19:27.457Z,85.29
2023-06-14T00:20:27.360Z,85.67
2023-06-14T00:21:27.284Z,84.81
2023-06-14T00:22:27.215Z,84.14
2023-06-14T00:23:27.167Z,84.10
2023-06-14T00:24:48.024Z,84.72
2023-06-14T00:25:29.082Z,84.05
2023-06-14T00:26:26.892Z,83.00
2023-06-14T00:27:26.830Z,82.90
2023-06-14T00:28:26.748Z,83.09
2023-06-14T00:29:28.597Z,82.90
2023-06-14T00:30:47.678Z,82.42
2023-06-14T00:31:26.505Z,81.85
2023-06-14T00:32:28.151Z,82.52
2023-06-14T00:33:26.377Z,82.61
2023-06-14T00:34:26.275Z,82.71
2023-06-14T00:35:26.183Z,82.61
2023-06-14T00:36:47.095Z,82.42
2023-06-14T00:37:26.021Z,82.75
2023-06-14T00:38:26.016Z,82.84
2023-06-14T00:39:25.875Z,82.65
2023-06-14T00:40:25.810Z,82.84
2023-06-14T00:41:25.717Z,82.37
2023-06-14T00:42:46.618Z,82.08
2023-06-14T00:43:25.543Z,81.13
2023-06-14T00:44:25.479Z,79.98
2023-06-14T00:45:25.390Z,80.84
2023-06-14T00:46:25.421Z,81.51
2023-06-14T00:47:25.237Z,82.56
2023-06-14T00:48:46.140Z,82.56
2023-06-14T00:49:25.085Z,82.28
2023-06-14T00:50:24.997Z,83.09
2023-06-14T00:51:24.931Z,83.04
2023-06-14T00:52:24.856Z,83.09
2023-06-14T00:53:24.775Z,83.09
2023-06-14T00:54:45.672Z,83.38
2023-06-14T00:55:24.620Z,83.18
2023-06-14T00:56:24.540Z,82.46
2023-06-14T00:57:24.454Z,82.08
2023-06-14T00:58:24.392Z,83.33
2023-06-14T00:59:24.303Z,84.38
2023-06-14T01:00:45.225Z,84.66
2023-06-14T01:01:24.228Z,85.33
2023-06-14T01:02:24.223Z,85.86
2023-06-14T01:03:24.184Z,86.15
2023-06-14T01:04:23.912Z,86.15
2023-06-14T01:05:23.827Z,86.24
2023-06-14T01:06:44.724Z,85.96
2023-06-14T01:07:23.674Z,85.19
2023-06-14T01:08:23.594Z,85.58
2023-06-14T01:09:23.509Z,85.77
2023-06-14T01:10:23.440Z,85.29
2023-06-14T01:11:23.369Z,84.43
2023-06-14T01:12:44.266Z,83.57
2023-06-14T01:13:23.204Z,83.18
2023-06-14T01:14:23.122Z,82.90
2023-06-14T01:15:23.049Z,83.57
2023-06-14T01:16:23.000Z,84.23
2023-06-14T01:17:22.970Z,83.38
2023-06-14T01:18:43.793Z,82.32
2023-06-14T01:19:22.737Z,82.23
2023-06-14T01:20:22.651Z,81.37
2023-06-14T01:21:22.589Z,81.47
2023-06-14T01:22:22.487Z,82.23
2023-06-14T01:23:22.435Z,81.95
2023-06-14T01:24:43.311Z,82.52
2023-06-14T01:25:22.269Z,82.32
2023-06-14T01:26:22.173Z,82.71
2023-06-14T01:27:22.093Z,82.23
2023-06-14T01:28:22.022Z,81.85
2023-06-14T01:29:21.942Z,82.42
2023-06-14T01:30:42.835Z,82.81
2023-06-14T01:31:21.780Z,83.28
2023-06-14T01:32:21.714Z,83.18
2023-06-14T01:33:21.628Z,83.18
2023-06-14T01:34:21.576Z,83.62
2023-06-14T01:35:21.537Z,83.62
2023-06-14T01:36:42.395Z,83.62
2023-06-14T01:37:21.298Z,83.62
2023-06-14T01:38:21.233Z,84.48
2023-06-14T01:39:21.156Z,84.58
2023-06-14T01:40:21.065Z,84.00
2023-06-14T01:41:21.010Z,83.39
2023-06-14T01:42:41.904Z,83.77
2023-06-14T01:43:20.824Z,84.63
2023-06-14T01:44:20.766Z,85.30
2023-06-14T01:45:20.689Z,86.88
2023-06-14T01:46:20.620Z,87.35
2023-06-14T01:47:20.527Z,87.35
2023-06-14T01:48:41.422Z,87.30
2023-06-14T01:49:20.366Z,87.40
2023-06-14T01:50:20.283Z,87.30
2023-06-14T01:51:20.217Z,86.54
2023-06-14T01:52:20.128Z,86.25
2023-06-14T01:53:20.060Z,86.06
2023-06-14T01:54:40.962Z,85.97
2023-06-14T01:55:19.925Z,86.35
2023-06-14T01:56:19.816Z,85.97
2023-06-14T01:57:19.745Z,86.25
2023-06-14T01:58:19.663Z,86.16
2023-06-14T01:59:19.577Z,85.97
2023-06-14T02:00:40.469Z,87.07
2023-06-14T02:01:19.470Z,86.21
2023-06-14T02:02:19.348Z,86.78
2023-06-14T02:03:19.280Z,87.54
2023-06-14T02:04:19.185Z,87.74
2023-06-14T02:05:19.172Z,88.02
2023-06-14T02:06:40.000Z,88.12
2023-06-14T02:07:18.962Z,87.93
2023-06-14T02:08:18.854Z,88.12
2023-06-14T02:09:18.797Z,87.26
2023-06-14T02:10:18.730Z,87.35
2023-06-14T02:11:18.640Z,87.64
2023-06-14T02:12:39.580Z,87.64
2023-06-14T02:13:18.489Z,87.35
2023-06-14T02:14:18.406Z,85.93
2023-06-14T02:15:18.347Z,86.78
2023-06-14T02:16:18.252Z,86.78
2023-06-14T02:17:18.165Z,86.16
2023-06-14T02:18:39.055Z,86.49
2023-06-14T02:19:18.012Z,86.73
2023-06-14T02:20:18.099Z,86.73
2023-06-14T02:21:17.854Z,86.73
2023-06-14T02:22:17.752Z,84.72
2023-06-14T02:23:17.690Z,83.01
2023-06-14T02:24:38.588Z,81.35
2023-06-14T02:25:17.551Z,81.35
2023-06-14T02:26:17.452Z,82.87
2023-06-14T02:27:17.375Z,84.88
2023-06-14T02:28:17.305Z,85.35
2023-06-14T02:29:17.214Z,85.54
2023-06-14T02:30:38.103Z,86.40
2023-06-14T02:31:17.138Z,86.78
2023-06-14T02:32:17.005Z,86.40
2023-06-14T02:33:16.901Z,86.69
2023-06-14T02:34:16.845Z,87.16
2023-06-14T02:35:16.727Z,87.16
2023-06-14T02:36:37.640Z,87.16
2023-06-14T02:37:16.589Z,85.93
2023-06-14T02:38:16.504Z,85.25
2023-06-14T02:39:16.471Z,84.59
2023-06-14T02:40:16.431Z,84.69
2023-06-14T02:41:16.261Z,85.31
2023-06-14T02:42:37.173Z,85.69
2023-06-14T02:43:16.103Z,86.07
2023-06-14T02:44:16.035Z,86.93
2023-06-14T02:45:15.935Z,87.31
2023-06-14T02:46:15.854Z,87.26
2023-06-14T02:47:15.808Z,85.83
2023-06-14T02:48:36.723Z,84.92
2023-06-14T02:49:15.630Z,85.06
2023-06-14T02:50:15.653Z,85.45
2023-06-14T02:51:15.480Z,86.65
2023-06-14T02:52:16.080Z,87.50
2023-06-14T02:53:15.318Z,87.98
2023-06-14T02:54:36.211Z,87.88
2023-06-14T02:55:15.153Z,88.17
2023-06-14T02:56:15.069Z,87.21
2023-06-14T02:57:14.984Z,87.02
2023-06-14T02:58:14.920Z,87.02
2023-06-14T02:59:14.821Z,88.07
2023-06-14T03:00:35.805Z,88.36
2023-06-14T03:01:14.710Z,89.55
2023-06-14T03:02:14.592Z,90.64
2023-06-14T03:03:14.621Z,90.08
2023-06-14T03:04:14.510Z,89.89
2023-06-14T03:05:14.346Z,89.89
2023-06-14T03:06:35.248Z,87.69
2023-06-14T03:07:14.196Z,86.36
2023-06-14T03:08:14.123Z,85.21
2023-06-14T03:09:14.016Z,84.92
2023-06-14T03:10:14.416Z,84.64
2023-06-14T03:11:13.908Z,84.55
2023-06-14T03:12:34.773Z,84.45
2023-06-14T03:13:13.738Z,85.88
2023-06-14T03:14:13.632Z,86.93
2023-06-14T03:15:13.562Z,87.02
2023-06-14T03:16:13.481Z,88.26
2023-06-14T03:17:13.402Z,89.12
2023-06-14T03:18:34.281Z,89.50
2023-06-14T03:19:13.228Z,89.89
2023-06-14T03:20:13.293Z,89.50
2023-06-14T03:21:13.081Z,89.79
2023-06-14T03:22:13.011Z,88.74
2023-06-14T03:23:12.932Z,89.03
2023-06-14T03:24:34.584Z,89.12
2023-06-14T03:25:12.754Z,89.12
2023-06-14T03:26:12.682Z,88.17
2023-06-14T03:27:12.597Z,87.98
2023-06-14T03:28:12.524Z,88.64
2023-06-14T03:29:12.443Z,88.74
2023-06-14T03:30:33.359Z,88.26
2023-06-14T03:31:12.318Z,86.16
2023-06-14T03:32:12.199Z,84.74
2023-06-14T03:33:12.192Z,85.12
2023-06-14T03:34:12.028Z,85.55
2023-06-14T03:35:11.967Z,86.32
2023-06-14T03:36:32.868Z,87.84
2023-06-14T03:37:11.798Z,88.60
2023-06-14T03:38:11.732Z,88.51
2023-06-14T03:39:11.644Z,89.07
2023-06-14T03:40:11.554Z,89.07
2023-06-14T03:41:11.504Z,90.31
2023-06-14T03:42:32.409Z,89.94
2023-06-14T03:43:11.336Z,90.60
2023-06-14T03:44:11.246Z,90.60
2023-06-14T03:45:11.152Z,90.70
2023-06-14T03:46:11.078Z,91.08
2023-06-14T03:47:11.024Z,90.55
2023-06-14T03:48:31.975Z,90.74
2023-06-14T03:49:10.853Z,90.36
2023-06-14T03:50:10.770Z,90.74
2023-06-14T03:51:10.685Z,89.79
2023-06-14T03:52:10.613Z,89.22
2023-06-14T03:53:10.538Z,89.98
2023-06-14T03:55:46.841Z,90.93
2023-06-14T03:56:10.524Z,90.64
2023-06-14T03:57:10.208Z,90.55
2023-06-14T03:58:10.114Z,89.22
2023-06-14T03:59:10.057Z,87.50
2023-06-14T04:00:30.936Z,87.50
2023-06-14T04:01:09.898Z,88.07
2023-06-14T04:02:09.800Z,88.45
2023-06-14T04:03:09.856Z,89.50
2023-06-14T04:04:09.710Z,89.89
2023-06-14T04:05:09.591Z,90.64
2023-06-14T04:06:30.470Z,90.64
2023-06-14T04:07:09.402Z,90.84
2023-06-14T04:08:09.336Z,90.55
2023-06-14T04:09:09.259Z,90.36
2023-06-14T04:10:09.173Z,91.31
2023-06-14T04:11:09.091Z,91.41
2023-06-14T04:12:29.995Z,90.55
2023-06-14T04:13:08.938Z,91.31
2023-06-14T04:14:08.863Z,91.03
2023-06-14T04:15:19.762Z,92.08
2023-06-14T04:16:08.728Z,91.88
2023-06-14T04:17:08.619Z,91.98
2023-06-14T04:18:29.511Z,92.08
2023-06-14T04:19:08.462Z,92.08
2023-06-14T04:20:08.390Z,92.27
2023-06-14T04:21:08.302Z,92.46
2023-06-14T04:22:08.205Z,91.98
2023-06-14T04:23:08.131Z,92.27
2023-06-14T04:24:29.040Z,92.17
2023-06-14T04:25:07.983Z,91.88
2023-06-14T04:26:07.887Z,92.08
2023-06-14T04:27:07.837Z,92.36
2023-06-14T04:28:07.735Z,92.32
2023-06-14T04:29:07.664Z,91.98
2023-06-14T04:30:28.570Z,91.93
2023-06-14T04:31:07.490Z,92.12
2023-06-14T04:32:07.425Z,92.22
2023-06-14T04:33:07.425Z,91.83
2023-06-14T04:34:07.250Z,92.12
2023-06-14T04:35:07.192Z,92.32
2023-06-14T04:36:28.074Z,92.12
2023-06-14T04:37:07.016Z,91.74
2023-06-14T04:38:06.928Z,92.12
2023-06-14T04:39:06.851Z,92.12
2023-06-14T04:40:07.049Z,91.74
2023-06-14T04:41:06.700Z,91.55
2023-06-14T04:42:27.598Z,91.74
2023-06-14T04:43:06.525Z,91.36
2023-06-14T04:44:06.467Z,91.31
2023-06-14T04:45:06.372Z,91.55
2023-06-14T04:46:06.316Z,92.26
2023-06-14T04:47:06.221Z,92.46
2023-06-14T04:48:27.120Z,92.17
2023-06-14T04:49:06.058Z,93.12
2023-06-14T04:50:05.985Z,92.83
2023-06-14T04:51:05.899Z,93.31
2023-06-14T04:52:05.852Z,93.70
2023-06-14T04:53:05.743Z,93.51
2023-06-14T04:54:26.631Z,93.41
2023-06-14T04:55:05.592Z,93.98
2023-06-14T04:56:05.507Z,93.02
2023-06-14T04:57:05.428Z,92.74
2023-06-14T04:58:05.344Z,91.41
2023-06-14T04:59:05.282Z,91.21
2023-06-14T05:00:26.174Z,90.83
2023-06-14T05:01:05.132Z,90.36
2023-06-14T05:02:05.049Z,89.73
2023-06-14T05:03:04.975Z,90.21
2023-06-14T05:04:04.928Z,89.64
2023-06-14T05:05:04.776Z,88.59
2023-06-14T05:06:25.687Z,88.30
2023-06-14T05:07:04.610Z,87.73
2023-06-14T05:08:04.547Z,87.35
2023-06-14T05:09:04.480Z,88.20
2023-06-14T05:10:04.384Z,87.63
2023-06-14T05:11:04.301Z,86.96
2023-06-14T05:12:25.214Z,86.43
2023-06-14T05:13:04.167Z,86.72
2023-06-14T05:14:04.066Z,86.72
2023-06-14T05:15:03.992Z,86.63
2023-06-14T05:16:03.954Z,86.72
2023-06-14T05:17:03.836Z,86.34
2023-06-14T05:18:24.745Z,85.96
2023-06-14T05:19:03.663Z,85.86
2023-06-14T05:20:03.633Z,85.38
2023-06-14T05:21:03.499Z,85.29
2023-06-14T05:22:03.427Z,85.86
2023-06-14T05:23:03.350Z,84.72
2023-06-14T05:24:24.286Z,84.38
2023-06-14T05:25:03.200Z,84.38
2023-06-14T05:26:03.126Z,84.66
2023-06-14T05:27:03.064Z,84.76
2023-06-14T05:28:02.961Z,83.99
2023-06-14T05:29:02.897Z,83.80
2023-06-14T05:30:23.780Z,84.09
2023-06-14T05:31:02.738Z,83.99
2023-06-14T05:32:02.715Z,83.04
2023-06-14T05:33:02.667Z,83.04
2023-06-14T05:34:02.605Z,82.65
2023-06-14T05:35:02.397Z,82.46
2023-06-14T05:36:23.316Z,82.46
2023-06-14T05:37:02.248Z,82.65
2023-06-14T05:38:02.278Z,82.56
2023-06-14T05:39:02.089Z,82.28
2023-06-14T05:40:02.009Z,82.51
2023-06-14T05:41:01.928Z,82.03
2023-06-14T05:42:22.833Z,82.31
2023-06-14T05:43:01.776Z,83.08
2023-06-14T05:44:01.696Z,82.60
2023-06-14T05:45:01.637Z,82.70
2023-06-14T05:46:01.539Z,81.36
2023-06-14T05:47:01.508Z,81.45
2023-06-14T05:48:22.374Z,81.16
2023-06-14T05:49:01.306Z,79.83
2023-06-14T05:50:01.280Z,79.35
2023-06-14T05:51:01.149Z,79.58
2023-06-14T05:52:01.067Z,80.16
2023-06-14T05:53:01.030Z,79.96
2023-06-14T05:54:21.912Z,80.35
2023-06-14T05:55:00.822Z,79.87
2023-06-14T05:56:00.770Z,80.16
2023-06-14T05:57:00.675Z,80.06
2023-06-14T05:58:00.594Z,80.44
2023-06-14T05:59:00.512Z,80.16
2023-06-14T06:00:21.422Z,79.20
2023-06-14T06:01:00.364Z,79.00
2023-06-14T06:02:00.301Z,79.29
2023-06-14T06:03:00.273Z,79.05
2023-06-14T06:04:00.345Z,78.47
2023-06-14T06:05:00.044Z,78.19
2023-06-14T06:06:20.962Z,78.76
2023-06-14T06:06:59.876Z,78.66
2023-06-14T06:07:59.819Z,78.09
2023-06-14T06:08:59.743Z,77.90
2023-06-14T06:09:59.668Z,77.80
2023-06-14T06:10:59.569Z,78.28
2023-06-14T06:12:20.471Z,77.75
2023-06-14T06:12:59.412Z,77.84
2023-06-14T06:13:59.344Z,78.03
2023-06-14T06:14:59.264Z,77.17
2023-06-14T06:15:59.215Z,77.46
2023-06-14T06:16:59.158Z,76.98
2023-06-14T06:18:20.081Z,77.46
2023-06-14T06:19:00.665Z,76.98
2023-06-14T06:19:58.882Z,76.44
2023-06-14T06:20:58.804Z,75.68
2023-06-14T06:21:58.711Z,75.39
2023-06-14T06:22:58.636Z,75.20
2023-06-14T06:24:19.603Z,75.48
2023-06-14T06:24:58.474Z,75.48
2023-06-14T06:25:58.404Z,75.77
2023-06-14T06:26:58.305Z,75.20
2023-06-14T06:27:58.353Z,75.39
2023-06-14T06:28:58.166Z,75.20
2023-06-14T06:30:19.068Z,76.06
2023-06-14T06:30:58.027Z,76.86
2023-06-14T06:31:57.962Z,76.29
2023-06-14T06:32:57.967Z,75.43
2023-06-14T06:33:57.772Z,75.23
2023-06-14T06:34:57.704Z,75.52
2023-06-14T06:36:18.603Z,74.85
2023-06-14T06:36:57.543Z,74.37
2023-06-14T06:37:57.456Z,73.80
2023-06-14T06:38:57.376Z,73.35
2023-06-14T06:39:57.316Z,73.35
2023-06-14T06:40:57.224Z,73.07
2023-06-14T06:42:19.129Z,73.35
2023-06-14T06:42:57.055Z,73.35
2023-06-14T06:43:56.995Z,73.65
2023-06-14T06:44:56.904Z,72.97
2023-06-14T06:45:56.871Z,72.88
2023-06-14T06:46:56.762Z,73.00
2023-06-14T06:48:17.671Z,73.20
2023-06-14T06:48:56.612Z,72.24
2023-06-14T06:49:56.540Z,72.49
2023-06-14T06:50:56.469Z,72.91
2023-06-14T06:51:56.395Z,72.72
2023-06-14T06:52:56.299Z,73.10
2023-06-14T06:54:17.213Z,73.20
2023-06-14T06:54:56.163Z,73.58
2023-06-14T06:55:56.067Z,72.53
2023-06-14T06:56:55.984Z,71.86
2023-06-14T06:57:55.917Z,72.72
2023-06-14T06:58:55.841Z,73.00
2023-06-14T07:00:16.975Z,73.04
2023-06-14T07:00:55.669Z,72.18
2023-06-14T07:01:55.707Z,71.70
2023-06-14T07:02:55.567Z,71.31
2023-06-14T07:03:55.453Z,71.89
2023-06-14T07:04:55.372Z,71.41
2023-06-14T07:06:16.273Z,70.97
2023-06-14T07:06:55.213Z,70.97
2023-06-14T07:07:57.839Z,71.35
2023-06-14T07:08:55.113Z,69.34
2023-06-14T07:09:54.990Z,69.62
2023-06-14T07:10:54.914Z,69.05
2023-06-14T07:12:15.835Z,70.10
2023-06-14T07:12:54.762Z,70.97
2023-06-14T07:13:54.688Z,70.68
2023-06-14T07:14:54.630Z,70.90
2023-06-14T07:15:54.592Z,71.19
2023-06-14T07:16:54.486Z,70.23
2023-06-14T07:18:16.713Z,70.62
2023-06-14T07:18:54.306Z,70.14
2023-06-14T07:19:54.227Z,69.08
2023-06-14T07:20:54.151Z,68.31
2023-06-14T07:21:54.072Z,69.37
2023-06-14T07:22:53.994Z,70.04
2023-06-14T07:24:14.951Z,69.60
2023-06-14T07:24:53.843Z,70.46
2023-06-14T07:25:53.764Z,69.40
2023-06-14T07:26:53.688Z,68.44
2023-06-14T07:27:53.615Z,67.77
2023-06-14T07:28:53.528Z,66.04
2023-06-14T07:30:14.455Z,63.25
2023-06-14T07:30:53.376Z,63.35
2023-06-14T07:31:53.315Z,64.69
2023-06-14T07:32:53.349Z,64.60
2023-06-14T07:33:53.273Z,64.69
2023-06-14T07:34:53.062Z,64.60
2023-06-14T07:36:13.992Z,64.60
2023-06-14T07:36:52.927Z,65.37
2023-06-14T07:37:52.856Z,64.60
2023-06-14T07:38:52.778Z,64.79
2023-06-14T07:39:52.719Z,64.02
2023-06-14T07:40:52.613Z,63.51
2023-06-14T07:42:13.525Z,63.32
2023-06-14T07:42:52.481Z,63.99
2023-06-14T07:43:52.393Z,64.50
2023-06-14T07:44:52.320Z,64.69
2023-06-14T07:46:05.835Z,64.60
2023-06-14T07:46:52.164Z,62.87
2023-06-14T07:48:13.183Z,63.45
2023-06-14T07:48:52.104Z,64.31
2023-06-14T07:49:51.929Z,64.79
2023-06-14T07:50:51.853Z,65.46
2023-06-14T07:51:51.809Z,65.30
2023-06-14T07:52:51.711Z,64.60
2023-06-14T07:54:12.616Z,63.92
2023-06-14T07:54:51.560Z,64.82
2023-06-14T07:55:53.816Z,64.92
2023-06-14T07:56:51.418Z,63.38
2023-06-14T07:57:51.346Z,63.09
2023-06-14T07:58:51.253Z,63.48
2023-06-14T08:00:12.214Z,62.99
2023-06-14T08:00:51.118Z,63.31
2023-06-14T08:01:51.024Z,62.64
2023-06-14T08:02:52.665Z,61.87
2023-06-14T08:03:51.021Z,62.74
2023-06-14T08:04:50.784Z,62.74
2023-06-14T08:06:11.780Z,61.71
2023-06-14T08:06:50.675Z,60.33
2023-06-14T08:07:50.595Z,60.62
2023-06-14T08:08:50.518Z,61.42
2023-06-14T08:09:50.446Z,60.94
2023-06-14T08:10:50.348Z,60.46
2023-06-14T08:12:11.413Z,60.07
2023-06-14T08:12:50.199Z,61.07
2023-06-14T08:13:50.126Z,61.16
2023-06-14T08:14:58.012Z,60.30
2023-06-14T08:15:50.095Z,60.00
2023-06-14T08:16:49.915Z,59.72
2023-06-14T08:18:10.825Z,59.75
2023-06-14T08:18:49.733Z,60.03
2023-06-14T08:19:49.671Z,60.03
2023-06-14T08:20:49.592Z,58.01
2023-06-14T08:21:49.562Z,57.05
2023-06-14T08:22:49.465Z,57.53
2023-06-14T08:24:10.405Z,57.72
2023-06-14T08:24:49.301Z,58.30
2023-06-14T08:25:49.220Z,59.20
2023-06-14T08:26:49.147Z,58.33
2023-06-14T08:27:49.070Z,57.56
2023-06-14T08:28:48.997Z,56.98
2023-06-14T08:30:09.910Z,56.37
2023-06-14T08:30:48.845Z,56.37
2023-06-14T08:31:48.778Z,57.05
2023-06-14T08:32:56.073Z,58.01
2023-06-14T08:33:48.754Z,57.85
2023-06-14T08:35:00.236Z,56.88
2023-06-14T08:36:09.468Z,56.21
2023-06-14T08:36:48.406Z,55.54
2023-06-14T08:37:48.328Z,55.92
2023-06-14T08:38:48.262Z,56.98
2023-06-14T08:39:48.198Z,54.09
2023-06-14T08:40:48.117Z,53.41
2023-06-14T08:42:13.133Z,53.13
2023-06-14T08:42:47.969Z,51.77
2023-06-14T08:43:47.890Z,52.55
2023-06-14T08:44:47.801Z,53.13
2023-06-14T08:45:47.747Z,53.15
2023-06-14T08:46:47.657Z,52.19
2023-06-14T08:48:08.659Z,52.86
2023-06-14T08:48:47.507Z,52.57
2023-06-14T08:49:47.522Z,52.98
2023-06-14T08:50:47.377Z,51.73
2023-06-14T08:51:47.305Z,50.67
2023-06-14T08:52:47.228Z,50.38
2023-06-14T08:54:08.146Z,51.17
2023-06-14T08:54:47.063Z,50.11
2023-06-14T08:55:47.023Z,49.05
2023-06-14T08:56:46.924Z,49.15
2023-06-14T08:57:46.868Z,48.57
2023-06-14T08:58:46.782Z,49.90
2023-06-14T09:00:07.703Z,50.76
2023-06-14T09:00:46.662Z,50.38
2023-06-14T09:01:59.656Z,51.15
2023-06-14T09:02:46.475Z,51.07
2023-06-14T09:03:46.456Z,50.40
2023-06-14T09:04:46.348Z,50.31
2023-06-14T09:06:07.241Z,50.43
2023-06-14T09:06:46.199Z,50.23
2023-06-14T09:07:46.142Z,50.33
2023-06-14T09:08:46.046Z,49.17
2023-06-14T09:10:02.986Z,49.85
2023-06-14T09:10:46.013Z,51.20
2023-06-14T09:12:06.815Z,50.81
2023-06-14T09:12:45.766Z,51.10
2023-06-14T09:13:45.689Z,51.10
2023-06-14T09:14:45.617Z,49.17
2023-06-14T09:15:45.611Z,49.85
2023-06-14T09:16:45.555Z,50.43
2023-06-14T09:18:06.393Z,52.94
2023-06-14T09:18:45.365Z,51.51
2023-06-14T09:19:45.251Z,49.46
2023-06-14T09:20:45.187Z,51.23
2023-06-14T09:21:45.107Z,53.06
2023-06-14T09:22:45.034Z,51.93
2023-06-14T09:24:05.954Z,50.55
2023-06-14T09:24:44.872Z,49.97
2023-06-14T09:25:45.092Z,49.87
2023-06-14T09:26:44.742Z,50.93
2023-06-14T09:27:44.655Z,51.03
2023-06-14T09:28:44.618Z,49.87
2023-06-14T09:30:05.505Z,49.68
2023-06-14T09:30:44.477Z,49.70
2023-06-14T09:31:44.495Z,49.00
2023-06-14T09:32:44.381Z,48.52
2023-06-14T09:33:44.240Z,49.19
2023-06-14T09:34:44.167Z,51.10
2023-06-14T09:36:05.115Z,49.85
2023-06-14T09:36:44.040Z,49.87
2023-06-14T09:37:43.936Z,50.52
2023-06-14T09:38:43.883Z,50.33
2023-06-14T09:39:43.798Z,51.01
2023-06-14T09:40:43.739Z,50.91
2023-06-14T09:42:04.629Z,51.27
2023-06-14T09:42:43.590Z,50.91
2023-06-14T09:43:43.501Z,51.49
2023-06-14T09:44:43.450Z,51.97
2023-06-14T09:45:43.359Z,51.78
2023-06-14T09:46:43.306Z,50.81
2023-06-14T09:48:06.855Z,51.10
2023-06-14T09:48:43.232Z,50.43
2023-06-14T09:49:43.069Z,49.85
2023-06-14T09:50:43.002Z,50.23
2023-06-14T09:51:43.115Z,51.01
2023-06-14T09:52:42.871Z,50.23
2023-06-14T09:54:03.768Z,49.75
2023-06-14T09:54:42.718Z,50.13
2023-06-14T09:55:42.650Z,48.86
2023-06-14T09:56:42.581Z,49.82
2023-06-14T09:57:42.482Z,50.11
2023-06-14T09:58:42.426Z,51.46
2023-06-14T10:00:03.338Z,50.96
2023-06-14T10:00:42.293Z,50.86
2023-06-14T10:01:42.270Z,51.53
2023-06-14T10:02:42.170Z,51.53
2023-06-14T10:04:01.854Z,51.25
2023-06-14T10:04:42.029Z,50.86
2023-06-14T10:06:02.888Z,50.57
2023-06-14T10:06:41.843Z,51.15
2023-06-14T10:07:41.772Z,52.40
2023-06-14T10:08:41.705Z,54.14
2023-06-14T10:09:41.634Z,54.53
2023-06-14T10:10:41.594Z,54.53
2023-06-14T10:12:02.475Z,54.14
2023-06-14T10:12:41.403Z,54.24
2023-06-14T10:13:41.345Z,55.52
2023-06-14T10:14:41.265Z,56.39
2023-06-14T10:15:41.205Z,55.42
2023-06-14T10:16:41.148Z,54.75
2023-06-14T10:18:02.073Z,54.27
2023-06-14T10:18:40.976Z,54.65
2023-06-14T10:19:40.898Z,53.78
2023-06-14T10:20:40.813Z,52.72
2023-06-14T10:21:40.744Z,51.63
2023-06-14T10:22:40.682Z,51.44
2023-06-14T10:24:01.698Z,51.34
2023-06-14T10:24:40.554Z,52.37
2023-06-14T10:25:40.456Z,53.44
2023-06-14T10:26:40.377Z,54.02
2023-06-14T10:27:40.357Z,55.36
2023-06-14T10:28:40.239Z,54.72
2023-06-14T10:30:01.180Z,54.11
2023-06-14T10:30:40.100Z,55.46
2023-06-14T10:31:40.088Z,54.88
2023-06-14T10:32:40.010Z,54.69
2023-06-14T10:33:41.698Z,53.63
2023-06-14T10:34:39.808Z,54.60
2023-06-14T10:36:00.725Z,54.31
2023-06-14T10:36:39.666Z,54.88
2023-06-14T10:37:39.595Z,54.24
2023-06-14T10:38:39.532Z,53.66
2023-06-14T10:39:39.459Z,53.37
2023-06-14T10:40:39.380Z,53.75
2023-06-14T10:42:00.290Z,53.75
2023-06-14T10:42:39.257Z,55.04
2023-06-14T10:43:39.157Z,55.33
2023-06-14T10:44:39.086Z,54.39
2023-06-14T10:45:39.025Z,54.29
2023-06-14T10:46:38.923Z,51.97
2023-06-14T10:47:59.877Z,51.56
2023-06-14T10:48:38.777Z,51.56
2023-06-14T10:49:38.710Z,53.27
2023-06-14T10:50:38.636Z,53.49
2023-06-14T10:51:38.556Z,52.11
2023-06-14T10:52:38.499Z,52.69
2023-06-14T10:53:59.409Z,53.08
2023-06-14T10:54:38.350Z,53.49
2023-06-14T10:55:38.277Z,52.50
2023-06-14T10:56:38.214Z,52.69
2023-06-14T10:57:51.051Z,52.69
2023-06-14T10:58:38.064Z,50.67
2023-06-14T10:59:58.978Z,52.31
2023-06-14T11:00:37.919Z,51.92
2023-06-14T11:01:37.874Z,51.73
2023-06-14T11:02:37.841Z,52.11
2023-06-14T11:03:37.764Z,51.92
2023-06-14T11:04:37.623Z,52.86
2023-06-14T11:05:58.539Z,52.76
2023-06-14T11:06:37.497Z,52.28
2023-06-14T11:07:37.392Z,52.86
2023-06-14T11:08:37.347Z,51.61
2023-06-14T11:09:37.274Z,50.93
2023-06-14T11:10:37.192Z,51.61
2023-06-14T11:11:58.095Z,51.61
2023-06-14T11:12:37.053Z,51.99
2023-06-14T11:13:36.962Z,53.44
2023-06-14T11:14:36.896Z,53.34
2023-06-14T11:15:36.819Z,51.82
2023-06-14T11:16:36.751Z,51.89
2023-06-14T11:17:57.691Z,51.73
2023-06-14T11:18:36.620Z,52.21
2023-06-14T11:19:36.517Z,51.44
2023-06-14T11:20:36.469Z,50.86
2023-06-14T11:21:36.396Z,51.22
2023-06-14T11:22:36.327Z,52.01
2023-06-14T11:23:57.251Z,52.79
2023-06-14T11:24:36.183Z,51.82
2023-06-14T11:25:36.085Z,50.96
2023-06-14T11:26:36.046Z,50.45
2023-06-14T11:27:35.939Z,51.03
2023-06-14T11:28:35.870Z,50.45
2023-06-14T11:29:56.771Z,51.15
2023-06-14T11:30:35.727Z,49.99
2023-06-14T11:31:35.661Z,50.18
2023-06-14T11:32:35.614Z,49.90
2023-06-14T11:33:35.505Z,50.38
2023-06-14T11:34:35.438Z,49.41
2023-06-14T11:35:56.358Z,49.70
2023-06-14T11:36:35.290Z,49.39
2023-06-14T11:37:35.205Z,50.54
2023-06-14T11:38:35.171Z,49.87
2023-06-14T11:39:35.071Z,48.71
2023-06-14T11:40:35.015Z,49.19
2023-06-14T11:41:55.898Z,49.77
2023-06-14T11:42:34.840Z,49.80
2023-06-14T11:43:34.791Z,48.44
2023-06-14T11:44:34.704Z,47.19
2023-06-14T11:45:34.622Z,48.54
2023-06-14T11:46:34.577Z,49.12
2023-06-14T11:47:55.490Z,49.80
2023-06-14T11:48:34.436Z,49.80
2023-06-14T11:49:34.344Z,50.57
2023-06-14T11:50:34.303Z,49.80
2023-06-14T11:51:34.220Z,49.70
2023-06-14T11:52:34.122Z,49.51
2023-06-14T11:53:55.029Z,49.80
2023-06-14T11:54:33.981Z,49.41
2023-06-14T11:55:33.918Z,49.99
2023-06-14T11:56:33.861Z,50.47
2023-06-14T11:57:33.747Z,51.56
2023-06-14T11:58:33.675Z,50.50
2023-06-14T11:59:54.581Z,49.80
2023-06-14T12:00:33.553Z,49.60
2023-06-14T12:01:33.517Z,49.99
2023-06-14T12:02:33.435Z,49.51
2023-06-14T12:03:33.385Z,50.01
2023-06-14T12:04:33.244Z,52.01
2023-06-14T12:05:54.197Z,53.37
2023-06-14T12:06:33.121Z,53.49
2023-06-14T12:07:33.032Z,53.20
2023-06-14T12:08:32.944Z,53.69
2023-06-14T12:09:32.880Z,53.78
2023-06-14T12:10:32.814Z,54.84
2023-06-14T12:11:53.721Z,53.59
2023-06-14T12:12:33.206Z,53.30
2023-06-14T12:13:32.593Z,52.17
2023-06-14T12:14:32.518Z,51.01
2023-06-14T12:15:32.451Z,50.43
2023-06-14T12:16:32.429Z,51.81
2023-06-14T12:17:53.335Z,54.03
2023-06-14T12:18:32.220Z,54.13
2023-06-14T12:19:32.146Z,52.89
2023-06-14T12:20:32.160Z,51.93
2023-06-14T12:21:31.994Z,52.99
2023-06-14T12:22:31.940Z,50.96
2023-06-14T12:23:52.844Z,50.86
2023-06-14T12:24:31.950Z,49.92
2023-06-14T12:25:31.718Z,48.54
2023-06-14T12:26:31.635Z,48.86
2023-06-14T12:27:31.577Z,47.41
2023-06-14T12:28:31.503Z,47.91
2023-06-14T12:29:52.421Z,48.57
2023-06-14T12:30:31.393Z,49.27
2023-06-14T12:31:31.407Z,48.59
2023-06-14T12:32:31.360Z,46.15
2023-06-14T12:33:31.212Z,46.25
2023-06-14T12:34:31.085Z,46.61
2023-06-14T12:35:51.983Z,46.03
2023-06-14T12:36:30.934Z,46.32
2023-06-14T12:37:30.842Z,46.61
2023-06-14T12:38:30.770Z,47.45
2023-06-14T12:39:30.693Z,46.85
2023-06-14T12:40:30.627Z,47.05
2023-06-14T12:41:51.541Z,48.11
2023-06-14T12:42:30.489Z,49.27
2023-06-14T12:43:30.424Z,48.49
2023-06-14T12:44:30.335Z,47.91
2023-06-14T12:45:30.260Z,48.49
2023-06-14T12:46:30.201Z,47.33
2023-06-14T12:47:51.205Z,47.05
2023-06-14T12:48:30.053Z,47.43
2023-06-14T12:49:29.971Z,47.05
2023-06-14T12:50:29.913Z,46.56
2023-06-14T12:51:29.839Z,47.91
2023-06-14T12:52:29.753Z,47.63